createdAt,value
2022-10-26T00:01:04.495Z,99.90
2022-10-26T00:03:32.301Z,99.90
2022-10-26T00:06:03.842Z,99.90
2022-10-26T00:08:33.148Z,99.90
2022-10-26T00:11:01.125Z,99.90
2022-10-26T00:13:29.183Z,99.90
2022-10-26T00:15:57.244Z,99.90
2022-10-26T00:18:25.078Z,99.90
2022-10-26T00:20:52.856Z,99.90
2022-10-26T00:23:20.635Z,99.90
2022-10-26T00:25:56.486Z,99.90
2022-10-26T00:28:24.254Z,99.90
2022-10-26T00:30:52.002Z,99.90
2022-10-26T00:33:19.874Z,99.90
2022-10-26T00:35:48.629Z,99.90
2022-10-26T00:38:16.416Z,99.90
2022-10-26T00:40:44.403Z,99.90
2022-10-26T00:43:27.081Z,99.90
2022-10-26T00:45:58.243Z,99.90
2022-10-26T00:48:27.285Z,99.90
2022-10-26T00:50:55.238Z,99.90
2022-10-26T00:53:23.275Z,99.90
2022-10-26T00:55:52.007Z,99.90
2022-10-26T00:58:21.172Z,99.90
2022-10-26T01:00:49.461Z,99.90
2022-10-26T01:03:18.814Z,99.90
2022-10-26T01:05:47.209Z,99.90
2022-10-26T01:08:15.477Z,99.90
2022-10-26T01:10:43.823Z,99.90
2022-10-26T01:13:12.007Z,99.90
2022-10-26T01:15:43.301Z,99.90
2022-10-26T01:18:14.308Z,99.90
2022-10-26T01:20:56.952Z,99.90
2022-10-26T01:23:30.457Z,99.90
2022-10-26T01:26:09.197Z,99.90
2022-10-26T01:28:46.876Z,99.90
2022-10-26T01:31:20.205Z,99.90
2022-10-26T01:33:51.112Z,99.90
2022-10-26T01:36:23.563Z,99.90
2022-10-26T01:38:55.639Z,99.90
2022-10-26T01:41:27.069Z,99.90
2022-10-26T01:43:57.060Z,99.90
2022-10-26T01:46:27.548Z,99.90
2022-10-26T01:48:57.097Z,99.90
2022-10-26T01:51:25.986Z,99.90
2022-10-26T01:53:53.749Z,99.90
2022-10-26T01:56:22.979Z,99.90
2022-10-26T01:59:01.744Z,99.90
2022-10-26T02:01:42.313Z,99.90
2022-10-26T02:04:14.786Z,99.90
2022-10-26T02:06:46.606Z,99.90
2022-10-26T02:09:20.369Z,99.90
2022-10-26T02:11:49.489Z,99.90
2022-10-26T02:14:20.493Z,99.90
2022-10-26T02:16:53.962Z,99.90
2022-10-26T02:19:28.282Z,99.90
2022-10-26T02:21:58.759Z,99.90
2022-10-26T02:24:27.927Z,99.90
2022-10-26T02:26:57.354Z,99.90
2022-10-26T02:29:26.157Z,99.90
2022-10-26T02:31:55.961Z,99.90
2022-10-26T02:34:25.439Z,99.90
2022-10-26T02:36:55.072Z,99.90
2022-10-26T02:39:23.048Z,99.90
2022-10-26T02:41:51.736Z,99.90
2022-10-26T02:44:20.995Z,99.90
2022-10-26T02:46:48.886Z,99.90
2022-10-26T02:49:18.237Z,99.90
2022-10-26T02:54:26.101Z,99.90
2022-10-26T02:56:56.210Z,99.90
2022-10-26T02:59:24.851Z,99.90
2022-10-26T03:01:52.922Z,99.90
2022-10-26T03:04:22.116Z,99.90
2022-10-26T03:06:53.321Z,99.90
2022-10-26T03:09:23.498Z,99.90
2022-10-26T03:11:53.676Z,96.80
2022-10-26T03:14:21.572Z,48.60
2022-10-26T03:16:49.377Z,23.10
2022-10-26T03:19:17.160Z,35.70
2022-10-26T03:21:46.307Z,85.20
2022-10-26T03:24:14.078Z,68.10
2022-10-26T03:26:41.879Z,99.90
2022-10-26T03:29:09.974Z,99.90
2022-10-26T03:31:37.745Z,99.90
2022-10-26T03:34:05.512Z,99.90
2022-10-26T03:36:34.046Z,99.90
2022-10-26T03:39:03.165Z,79.50
2022-10-26T03:41:30.928Z,96.00
2022-10-26T03:43:58.694Z,99.90
2022-10-26T03:46:26.467Z,99.90
2022-10-26T03:48:54.351Z,99.90
2022-10-26T03:51:22.117Z,29.60
2022-10-26T03:53:50.657Z,69.50
2022-10-26T03:56:19.784Z,61.20
2022-10-26T03:58:47.550Z,99.90
2022-10-26T04:01:15.432Z,99.90
2022-10-26T04:03:43.234Z,99.90
2022-10-26T04:06:11.025Z,99.90
2022-10-26T04:08:38.973Z,99.90
2022-10-26T04:11:06.729Z,99.90
2022-10-26T04:13:35.873Z,99.90
2022-10-26T04:16:03.659Z,99.90
2022-10-26T04:18:31.429Z,99.90
2022-10-26T04:21:01.822Z,99.90
2022-10-26T04:23:29.610Z,99.90
2022-10-26T04:25:57.397Z,99.90
2022-10-26T04:28:25.312Z,99.90
2022-10-26T04:30:54.431Z,99.90
2022-10-26T04:33:22.233Z,99.90
2022-10-26T04:35:49.998Z,99.90
2022-10-26T04:38:17.761Z,99.90
2022-10-26T04:40:45.553Z,99.90
2022-10-26T04:43:13.332Z,99.90
2022-10-26T04:45:41.096Z,99.90
2022-10-26T04:48:11.645Z,99.90
2022-10-26T04:50:39.712Z,99.90
2022-10-26T04:53:07.840Z,99.90
2022-10-26T04:55:36.017Z,99.90
2022-10-26T04:58:04.013Z,99.90
2022-10-26T05:00:32.925Z,99.90
2022-10-26T05:03:01.191Z,99.90
2022-10-26T05:05:31.747Z,99.90
2022-10-26T05:07:59.603Z,99.90
2022-10-26T05:10:27.970Z,99.90
2022-10-26T05:12:56.223Z,99.90
2022-10-26T05:15:24.048Z,99.90
2022-10-26T05:17:56.183Z,99.90
2022-10-26T05:20:29.312Z,99.90
2022-10-26T05:22:58.688Z,99.90
2022-10-26T05:25:26.648Z,99.90
2022-10-26T05:27:58.097Z,99.90
2022-10-26T05:30:25.908Z,99.90
2022-10-26T05:32:56.558Z,99.90
2022-10-26T05:35:24.702Z,99.90
2022-10-26T05:37:52.849Z,99.90
2022-10-26T05:40:22.426Z,99.90
2022-10-26T05:42:51.119Z,99.90
2022-10-26T05:45:19.431Z,99.90
2022-10-26T05:47:47.772Z,99.90
2022-10-26T05:50:15.847Z,99.90
2022-10-26T05:52:44.057Z,99.90
2022-10-26T05:55:12.820Z,99.90
2022-10-26T05:57:42.726Z,99.90
2022-10-26T06:00:11.473Z,99.90
2022-10-26T06:02:43.921Z,99.90
2022-10-26T06:05:12.153Z,99.90
2022-10-26T06:07:40.247Z,99.90
2022-10-26T06:10:08.651Z,99.90
2022-10-26T06:12:36.659Z,99.90
2022-10-26T06:15:06.564Z,99.90
2022-10-26T06:17:39.243Z,99.90
2022-10-26T06:22:53.118Z,99.90
2022-10-26T06:25:27.008Z,99.90
2022-10-26T06:27:58.303Z,99.90
2022-10-26T06:30:27.528Z,99.90
2022-10-26T06:33:05.900Z,99.90
2022-10-26T06:35:45.193Z,99.90
2022-10-26T06:38:15.463Z,99.90
2022-10-26T06:40:44.382Z,99.90
2022-10-26T06:43:14.510Z,99.90
2022-10-26T06:45:46.489Z,99.90
2022-10-26T06:48:17.792Z,99.90
2022-10-26T06:50:48.472Z,99.90
2022-10-26T06:53:20.361Z,99.90
2022-10-26T06:55:49.800Z,99.90
2022-10-26T06:58:18.842Z,99.90
2022-10-26T07:00:48.958Z,99.90
2022-10-26T07:03:16.776Z,99.90
2022-10-26T07:05:45.139Z,99.90
2022-10-26T07:08:13.022Z,99.90
2022-10-26T07:10:42.195Z,99.90
2022-10-26T07:13:10.531Z,99.90
2022-10-26T07:15:39.112Z,99.90
2022-10-26T07:18:09.085Z,99.90
2022-10-26T07:20:37.718Z,99.90
2022-10-26T07:23:06.959Z,99.90
2022-10-26T07:25:35.576Z,99.90
2022-10-26T07:28:03.363Z,99.90
2022-10-26T07:30:31.644Z,99.90
2022-10-26T07:33:00.062Z,99.90
2022-10-26T07:35:29.267Z,99.90
2022-10-26T07:37:57.906Z,99.90
2022-10-26T07:40:25.947Z,99.90
2022-10-26T07:42:53.975Z,99.90
2022-10-26T07:45:21.886Z,50.80
2022-10-26T07:47:50.749Z,57.80
2022-10-26T07:50:18.588Z,55.50
2022-10-26T07:52:47.907Z,1.00
2022-10-26T07:55:16.134Z,1.00
2022-10-26T07:57:43.925Z,1.00
2022-10-26T08:00:12.357Z,1.00
2022-10-26T08:02:40.121Z,1.00
2022-10-26T08:05:08.250Z,99.90
2022-10-26T08:07:41.183Z,1.00
2022-10-26T08:12:38.703Z,99.90
2022-10-26T08:15:07.317Z,91.10
2022-10-26T08:17:35.164Z,1.00
2022-10-26T08:20:02.951Z,99.90
2022-10-26T08:22:31.097Z,99.90
2022-10-26T08:24:58.847Z,99.90
2022-10-26T08:27:26.637Z,1.00
2022-10-26T08:29:55.790Z,99.90
2022-10-26T08:32:23.647Z,99.90
2022-10-26T08:34:51.412Z,99.90
2022-10-26T08:37:19.221Z,99.90
2022-10-26T08:39:49.197Z,1.00
2022-10-26T08:42:22.234Z,99.90
2022-10-26T08:44:52.561Z,1.00
2022-10-26T08:47:22.542Z,99.90
2022-10-26T08:49:53.093Z,1.00
2022-10-26T08:52:24.417Z,99.90
2022-10-26T08:54:53.569Z,99.90
2022-10-26T08:57:23.729Z,99.90
2022-10-26T08:59:55.028Z,1.00
2022-10-26T09:02:24.808Z,1.00
2022-10-26T09:04:53.067Z,1.00
2022-10-26T09:07:27.425Z,1.00
2022-10-26T09:09:58.834Z,88.60
2022-10-26T09:12:28.975Z,1.00
2022-10-26T09:15:01.263Z,99.90
2022-10-26T09:17:38.520Z,99.90
2022-10-26T09:20:11.331Z,99.90
2022-10-26T09:22:42.861Z,99.90
2022-10-26T09:25:16.298Z,99.90
2022-10-26T09:27:45.803Z,99.90
2022-10-26T09:30:15.066Z,99.90
2022-10-26T09:32:44.995Z,1.00
2022-10-26T09:35:15.640Z,1.00
2022-10-26T09:37:47.016Z,1.00
2022-10-26T09:40:17.348Z,99.90
2022-10-26T09:42:46.557Z,99.90
2022-10-26T09:45:16.590Z,99.90
2022-10-26T09:47:49.269Z,99.90
2022-10-26T09:50:19.633Z,99.90
2022-10-26T09:52:47.627Z,99.90
2022-10-26T09:55:16.008Z,99.90
2022-10-26T09:57:45.906Z,99.90
2022-10-26T10:00:14.705Z,99.90
2022-10-26T10:02:44.825Z,99.90
2022-10-26T10:05:45.781Z,99.90
2022-10-26T10:08:22.328Z,99.90
2022-10-26T10:13:22.034Z,99.90
2022-10-26T10:15:53.515Z,99.90
2022-10-26T10:18:22.169Z,99.90
2022-10-26T10:20:56.628Z,1.00
2022-10-26T10:23:28.132Z,17.10
2022-10-26T10:26:13.565Z,1.00
2022-10-26T10:28:42.426Z,94.40
2022-10-26T10:33:41.359Z,99.90
2022-10-26T10:36:12.844Z,99.90
2022-10-26T10:38:41.709Z,1.00
2022-10-26T10:41:17.084Z,99.90
2022-10-26T10:43:46.352Z,1.00
2022-10-26T10:46:18.555Z,1.00
2022-10-26T10:48:48.971Z,1.00
2022-10-26T10:51:22.498Z,1.00
2022-10-26T10:53:51.210Z,1.00
2022-10-26T10:56:36.956Z,1.00
2022-10-26T10:59:12.119Z,1.00
2022-10-26T11:01:41.596Z,1.00
2022-10-26T11:04:22.069Z,1.00
2022-10-26T11:06:51.908Z,1.00
2022-10-26T11:09:20.968Z,99.90
2022-10-26T11:11:49.939Z,1.00
2022-10-26T11:14:19.520Z,1.00
2022-10-26T11:16:48.400Z,1.00
2022-10-26T11:19:20.976Z,99.90
2022-10-26T11:21:50.355Z,99.90
2022-10-26T11:24:21.611Z,99.90
2022-10-26T11:26:52.717Z,99.90
2022-10-26T11:29:23.453Z,99.90
2022-10-26T11:31:54.571Z,99.90
2022-10-26T11:34:27.118Z,99.90
2022-10-26T11:36:57.657Z,99.90
2022-10-26T11:39:32.870Z,99.90
2022-10-26T11:42:02.817Z,99.90
2022-10-26T11:44:34.484Z,99.90
2022-10-26T11:47:03.714Z,99.90
2022-10-26T11:49:34.973Z,99.90
2022-10-26T11:52:07.470Z,99.90
2022-10-26T11:54:38.329Z,99.90
2022-10-26T11:57:06.618Z,99.90
2022-10-26T11:59:36.699Z,99.90
2022-10-26T12:02:06.379Z,99.90
2022-10-26T12:04:35.913Z,99.90
2022-10-26T12:07:05.781Z,99.90
2022-10-26T12:09:35.730Z,99.90
2022-10-26T12:12:07.759Z,99.90
2022-10-26T12:14:38.822Z,99.90
2022-10-26T12:17:09.697Z,99.90
2022-10-26T12:19:43.998Z,99.90
2022-10-26T12:22:13.158Z,99.90
2022-10-26T12:24:44.628Z,99.90
2022-10-26T12:27:27.240Z,99.90
2022-10-26T12:30:15.497Z,99.90
2022-10-26T12:32:58.307Z,99.90
2022-10-26T12:35:39.589Z,99.90
2022-10-26T12:38:22.203Z,99.90
2022-10-26T12:40:50.435Z,99.90
2022-10-26T12:43:34.900Z,99.90
2022-10-26T12:46:20.606Z,99.90
2022-10-26T12:48:50.403Z,99.90
2022-10-26T12:51:39.670Z,99.90
2022-10-26T12:54:16.825Z,99.90
2022-10-26T12:56:50.799Z,99.90
2022-10-26T12:59:23.226Z,99.90
2022-10-26T13:01:59.526Z,99.90
2022-10-26T13:04:43.197Z,99.90
2022-10-26T13:07:17.875Z,99.90
2022-10-26T13:09:46.517Z,99.90
2022-10-26T13:12:14.458Z,99.90
2022-10-26T13:14:56.038Z,99.90
2022-10-26T13:17:25.729Z,99.90
2022-10-26T13:19:58.539Z,99.90
2022-10-26T13:22:26.396Z,99.90
2022-10-26T13:24:55.522Z,99.90
2022-10-26T13:27:25.663Z,99.90
2022-10-26T13:30:12.143Z,99.90
2022-10-26T13:32:40.970Z,99.90
2022-10-26T13:35:13.599Z,99.90
2022-10-26T13:37:46.358Z,99.90
2022-10-26T13:40:18.542Z,99.90
2022-10-26T13:42:47.105Z,99.90
2022-10-26T13:45:16.127Z,99.90
2022-10-26T13:47:45.780Z,99.90
2022-10-26T13:50:16.805Z,99.90
2022-10-26T13:52:46.150Z,99.90
2022-10-26T13:55:18.039Z,99.90
2022-10-26T13:57:48.132Z,99.90
2022-10-26T14:00:17.652Z,99.90
2022-10-26T14:02:45.426Z,99.90
2022-10-26T14:05:14.423Z,99.90
2022-10-26T14:07:45.413Z,99.90
2022-10-26T14:10:24.217Z,99.90
2022-10-26T14:12:52.477Z,99.90
2022-10-26T14:15:22.950Z,99.90
2022-10-26T14:17:51.745Z,99.90
2022-10-26T14:20:20.556Z,99.90
2022-10-26T14:22:49.695Z,99.90
2022-10-26T14:25:26.658Z,99.90
2022-10-26T14:28:04.879Z,99.90
2022-10-26T14:30:33.890Z,99.90
2022-10-26T14:33:01.765Z,99.90
2022-10-26T14:35:31.140Z,99.90
2022-10-26T14:38:01.492Z,99.90
2022-10-26T14:40:30.049Z,99.90
2022-10-26T14:42:58.802Z,99.90
2022-10-26T14:45:47.504Z,99.90
2022-10-26T14:48:35.446Z,99.90
2022-10-26T14:51:12.372Z,99.90
2022-10-26T14:53:42.228Z,99.90
2022-10-26T14:56:19.312Z,99.90
2022-10-26T14:58:47.177Z,99.90
2022-10-26T15:01:15.640Z,99.90
2022-10-26T15:03:44.260Z,1.00
2022-10-26T15:06:39.341Z,1.00
2022-10-26T15:09:28.591Z,1.00
2022-10-26T15:11:56.664Z,1.00
2022-10-26T15:14:24.572Z,1.00
2022-10-26T15:16:53.803Z,1.00
2022-10-26T15:19:24.021Z,1.00
2022-10-26T15:21:53.341Z,1.00
2022-10-26T15:24:41.809Z,1.00
2022-10-26T15:27:17.349Z,1.00
2022-10-26T15:29:45.793Z,1.00
2022-10-26T15:32:20.221Z,1.00
2022-10-26T15:34:49.598Z,1.00
2022-10-26T15:37:17.492Z,1.00
2022-10-26T15:39:45.305Z,1.00
2022-10-26T15:42:14.662Z,1.00
2022-10-26T15:44:43.805Z,1.00
2022-10-26T15:47:18.118Z,1.00
2022-10-26T15:49:45.965Z,1.00
2022-10-26T15:52:13.860Z,1.00
2022-10-26T15:54:41.677Z,1.00
2022-10-26T15:57:13.095Z,1.00
2022-10-26T15:59:42.387Z,1.00
2022-10-26T16:02:15.862Z,1.00
2022-10-26T16:04:43.791Z,1.00
2022-10-26T16:07:13.784Z,1.00
2022-10-26T16:09:42.044Z,1.00
2022-10-26T16:12:11.512Z,1.00
2022-10-26T16:15:00.546Z,1.00
2022-10-26T16:17:28.666Z,1.00
2022-10-26T16:19:56.473Z,80.10
2022-10-26T16:22:24.387Z,85.80
2022-10-26T16:24:52.234Z,77.00
2022-10-26T16:27:20.091Z,73.10
2022-10-26T16:29:47.912Z,99.90
2022-10-26T16:32:15.726Z,99.90
2022-10-26T16:34:44.872Z,99.90
2022-10-26T16:37:12.679Z,99.90
2022-10-26T16:39:40.518Z,1.00
2022-10-26T16:42:08.326Z,1.00
2022-10-26T16:44:37.915Z,1.00
2022-10-26T16:47:05.801Z,99.90
2022-10-26T16:49:33.559Z,1.00
2022-10-26T16:52:04.334Z,1.00
2022-10-26T16:54:32.139Z,1.00
2022-10-26T16:56:59.974Z,99.90
2022-10-26T16:59:27.736Z,30.80
2022-10-26T17:01:55.730Z,99.90
2022-10-26T17:04:23.660Z,1.00
2022-10-26T17:06:51.449Z,1.00
2022-10-26T17:09:20.607Z,1.00
2022-10-26T17:11:48.435Z,1.00
2022-10-26T17:14:16.407Z,1.00
2022-10-26T17:16:44.206Z,99.90
2022-10-26T17:19:12.144Z,48.90
2022-10-26T17:21:39.960Z,99.90
2022-10-26T17:24:07.995Z,99.90
2022-10-26T17:26:37.192Z,99.90
2022-10-26T17:29:05.070Z,99.90
2022-10-26T17:31:32.915Z,99.90
2022-10-26T17:34:00.770Z,34.60
2022-10-26T17:36:28.884Z,56.40
2022-10-26T17:38:57.506Z,1.00
2022-10-26T17:41:25.862Z,99.90
2022-10-26T17:43:55.108Z,99.90
2022-10-26T17:46:24.224Z,99.90
2022-10-26T17:48:54.619Z,1.00
2022-10-26T17:51:22.590Z,51.50
2022-10-26T17:53:50.907Z,99.90
2022-10-26T17:56:19.825Z,99.90
2022-10-26T17:58:51.783Z,79.30
2022-10-26T18:01:21.146Z,1.00
2022-10-26T18:03:49.046Z,99.90
2022-10-26T18:06:17.559Z,99.90
2022-10-26T18:08:45.685Z,99.90
2022-10-26T18:11:14.430Z,99.90
2022-10-26T18:13:42.520Z,27.60
2022-10-26T18:16:11.083Z,1.00
2022-10-26T18:18:40.862Z,99.90
2022-10-26T18:21:09.531Z,1.00
2022-10-26T18:23:37.737Z,1.00
2022-10-26T18:26:11.322Z,1.00
2022-10-26T18:28:41.411Z,1.00
2022-10-26T18:31:10.158Z,1.00
2022-10-26T18:33:38.096Z,1.00
2022-10-26T18:36:08.736Z,1.00
2022-10-26T18:38:36.908Z,1.00
2022-10-26T18:41:05.038Z,99.90
2022-10-26T18:43:32.849Z,1.00
2022-10-26T18:46:04.314Z,18.20
2022-10-26T18:48:32.169Z,99.90
2022-10-26T18:51:03.800Z,1.00
2022-10-26T18:53:34.639Z,99.90
2022-10-26T18:56:03.408Z,1.00
2022-10-26T18:58:31.634Z,1.00
2022-10-26T19:01:06.346Z,35.50
2022-10-26T19:03:34.208Z,99.90
2022-10-26T19:06:08.469Z,99.90
2022-10-26T19:08:37.697Z,99.90
2022-10-26T19:11:06.178Z,1.00
2022-10-26T19:13:34.262Z,99.90
2022-10-26T19:16:02.588Z,99.90
2022-10-26T19:18:30.446Z,97.90
2022-10-26T19:20:58.749Z,48.00
2022-10-26T19:23:26.585Z,99.90
2022-10-26T19:25:58.570Z,1.00
2022-10-26T19:28:26.423Z,99.90
2022-10-26T19:30:54.243Z,1.00
2022-10-26T19:33:22.130Z,99.90
2022-10-26T19:35:49.942Z,99.90
2022-10-26T19:38:17.793Z,1.00
2022-10-26T19:40:45.620Z,1.00
2022-10-26T19:43:16.763Z,1.00
2022-10-26T19:45:44.629Z,1.00
2022-10-26T19:48:12.441Z,1.00
2022-10-26T19:50:40.266Z,1.00
2022-10-26T19:53:08.084Z,1.00
2022-10-26T19:55:35.942Z,99.90
2022-10-26T19:58:03.770Z,99.90
2022-10-26T20:00:36.485Z,99.90
2022-10-26T20:03:04.795Z,1.00
2022-10-26T20:05:32.740Z,3.60
2022-10-26T20:08:00.563Z,1.00
2022-10-26T20:10:29.104Z,99.90
2022-10-26T20:12:56.924Z,99.90
2022-10-26T20:15:24.750Z,99.90
2022-10-26T20:17:53.908Z,1.00
2022-10-26T20:20:21.723Z,1.00
2022-10-26T20:22:49.763Z,26.70
2022-10-26T20:25:17.778Z,1.00
2022-10-26T20:27:48.644Z,1.00
2022-10-26T20:30:16.745Z,1.00
2022-10-26T20:32:44.559Z,1.00
2022-10-26T20:35:13.759Z,89.20
2022-10-26T20:37:41.881Z,99.90
2022-10-26T20:40:10.831Z,99.90
2022-10-26T20:42:38.950Z,99.90
2022-10-26T20:45:09.152Z,99.90
2022-10-26T20:47:37.218Z,99.90
2022-10-26T20:50:05.741Z,99.90
2022-10-26T20:52:38.522Z,99.90
2022-10-26T20:55:10.964Z,99.90
2022-10-26T20:57:40.044Z,99.90
2022-10-26T21:00:09.364Z,99.90
2022-10-26T21:02:37.427Z,99.90
2022-10-26T21:05:05.576Z,99.90
2022-10-26T21:07:33.388Z,99.90
2022-10-26T21:10:02.572Z,99.90
2022-10-26T21:12:30.389Z,99.90
2022-10-26T21:14:58.213Z,99.90
2022-10-26T21:17:26.004Z,99.90
2022-10-26T21:19:53.852Z,99.90
2022-10-26T21:22:21.610Z,99.90
2022-10-26T21:24:49.450Z,99.90
2022-10-26T21:27:18.633Z,99.90
2022-10-26T21:29:46.443Z,99.90
2022-10-26T21:32:14.436Z,99.90
2022-10-26T21:34:42.233Z,99.90
2022-10-26T21:37:10.040Z,99.90
2022-10-26T21:39:37.837Z,99.90
2022-10-26T21:42:05.704Z,99.90
2022-10-26T21:44:42.139Z,99.90
2022-10-26T21:47:10.308Z,99.90
2022-10-26T21:49:38.181Z,99.90
2022-10-26T21:52:06.385Z,99.90
2022-10-26T21:54:34.246Z,99.90
2022-10-26T21:57:02.073Z,99.90
2022-10-26T21:59:29.887Z,99.90
2022-10-26T22:01:59.207Z,99.90
2022-10-26T22:04:27.116Z,99.90
2022-10-26T22:06:54.942Z,99.90
2022-10-26T22:09:22.759Z,99.90
2022-10-26T22:11:50.546Z,99.90
2022-10-26T22:14:19.094Z,99.90
2022-10-26T22:16:46.906Z,99.90
2022-10-26T22:19:16.217Z,99.90
2022-10-26T22:21:44.005Z,99.90
2022-10-26T22:24:12.433Z,99.90
2022-10-26T22:26:40.252Z,99.90
2022-10-26T22:29:08.032Z,99.90
2022-10-26T22:31:36.612Z,99.90
2022-10-26T22:34:07.907Z,99.90
2022-10-26T22:36:37.413Z,99.90
2022-10-26T22:39:05.393Z,99.90
2022-10-26T22:41:33.247Z,99.90
2022-10-26T22:44:01.049Z,99.90
2022-10-26T22:46:29.071Z,99.90
2022-10-26T22:48:57.399Z,99.90
2022-10-26T22:51:26.022Z,99.90
2022-10-26T22:53:55.464Z,99.90
2022-10-26T22:56:24.208Z,65.00
2022-10-26T22:58:52.553Z,99.90
2022-10-26T23:01:21.667Z,99.90
2022-10-26T23:03:50.038Z,99.90
2022-10-26T23:06:18.585Z,99.90
2022-10-26T23:08:46.361Z,99.90
2022-10-26T23:11:16.349Z,99.90
2022-10-26T23:13:44.373Z,99.90
2022-10-26T23:16:13.717Z,99.90
2022-10-26T23:18:41.561Z,99.90
2022-10-26T23:21:10.198Z,99.90
2022-10-26T23:23:38.432Z,99.90
2022-10-26T23:26:07.064Z,99.90
2022-10-26T23:28:36.331Z,99.90
2022-10-26T23:31:04.201Z,99.90
2022-10-26T23:33:32.165Z,99.90
2022-10-26T23:36:01.259Z,99.90
2022-10-26T23:38:29.056Z,99.90
2022-10-26T23:40:57.876Z,99.90
2022-10-26T23:43:26.065Z,99.90
2022-10-26T23:45:55.719Z,99.90
2022-10-26T23:48:23.562Z,99.90
2022-10-26T23:50:51.972Z,99.90
2022-10-26T23:53:21.338Z,99.90
2022-10-26T23:55:49.196Z,99.90
2022-10-26T23:58:17.594Z,99.90
